createdAt,value
2022-09-24T00:01:25.525Z,4.90
2022-09-24T00:03:54.774Z,4.47
2022-09-24T00:06:22.339Z,4.45
2022-09-24T00:08:51.473Z,4.40
2022-09-24T00:11:21.567Z,3.65
2022-09-24T00:13:49.842Z,4.88
2022-09-24T00:16:18.375Z,4.70
2022-09-24T00:18:45.629Z,4.22
2022-09-24T00:21:30.122Z,4.25
2022-09-24T00:23:59.853Z,3.90
2022-09-24T00:26:45.639Z,3.67
2022-09-24T00:29:15.577Z,4.57
2022-09-24T00:31:42.547Z,3.88
2022-09-24T00:34:09.565Z,3.70
2022-09-24T00:36:37.110Z,3.65
2022-09-24T00:39:05.231Z,3.60
2022-09-24T00:41:34.856Z,3.42
2022-09-24T00:44:02.078Z,3.90
2022-09-24T00:46:47.074Z,4.00
2022-09-24T00:49:19.285Z,3.65
2022-09-24T00:51:50.251Z,3.42
2022-09-24T00:54:22.623Z,3.50
2022-09-24T00:56:51.217Z,3.60
2022-09-24T00:59:23.145Z,3.45
2022-09-24T01:04:23.080Z,3.53
2022-09-24T01:09:21.215Z,2.80
2022-09-24T01:12:20.120Z,3.25
2022-09-24T01:14:49.764Z,2.90
2022-09-24T01:17:22.394Z,2.55
2022-09-24T01:19:54.878Z,2.80
2022-09-24T01:22:36.615Z,2.50
2022-09-24T01:25:12.393Z,2.80
2022-09-24T01:27:57.498Z,2.28
2022-09-24T01:30:25.575Z,2.20
2022-09-24T01:33:00.965Z,2.30
2022-09-24T01:35:33.748Z,2.50
2022-09-24T01:38:04.893Z,2.78
2022-09-24T01:40:32.049Z,2.55
2022-09-24T01:43:02.247Z,2.00
2022-09-24T01:45:31.845Z,1.90
2022-09-24T01:48:02.274Z,2.17
2022-09-24T01:50:34.485Z,2.00
2022-09-24T01:53:19.923Z,2.00
2022-09-24T01:55:50.688Z,2.10
2022-09-24T01:58:33.549Z,2.15
2022-09-24T02:01:08.237Z,2.20
2022-09-24T02:03:41.537Z,1.70
2022-09-24T02:06:17.775Z,1.92
2022-09-24T02:08:48.126Z,1.90
2022-09-24T02:11:16.008Z,1.92
2022-09-24T02:13:56.477Z,1.90
2022-09-24T02:16:47.683Z,1.98
2022-09-24T02:19:23.150Z,1.70
2022-09-24T02:21:51.154Z,1.75
2022-09-24T02:24:25.730Z,2.85
2022-09-24T02:26:52.604Z,1.73
2022-09-24T02:29:19.433Z,1.73
2022-09-24T02:31:52.878Z,1.83
2022-09-24T02:34:25.578Z,1.58
2022-09-24T02:36:55.711Z,1.70
2022-09-24T02:39:22.510Z,2.13
2022-09-24T02:41:51.306Z,1.95
2022-09-24T02:44:19.380Z,1.73
2022-09-24T02:46:47.380Z,2.03
2022-09-24T02:49:15.074Z,1.73
2022-09-24T02:51:42.705Z,1.92
2022-09-24T02:54:09.920Z,1.67
2022-09-24T02:56:36.969Z,1.48
2022-09-24T02:59:04.775Z,1.75
2022-09-24T03:01:32.468Z,1.70
2022-09-24T03:03:59.764Z,1.70
2022-09-24T03:06:26.765Z,1.60
2022-09-24T03:08:54.072Z,1.92
2022-09-24T03:11:21.768Z,1.60
2022-09-24T03:13:49.584Z,2.45
2022-09-24T03:16:17.795Z,1.83
2022-09-24T03:18:46.371Z,1.90
2022-09-24T03:21:15.026Z,2.00
2022-09-24T03:23:42.399Z,1.60
2022-09-24T03:26:09.548Z,1.50
2022-09-24T03:28:36.839Z,2.40
2022-09-24T03:31:04.823Z,1.95
2022-09-24T03:33:31.825Z,1.80
2022-09-24T03:36:01.654Z,2.22
2022-09-24T03:38:29.471Z,1.50
2022-09-24T03:40:57.781Z,1.70
2022-09-24T03:43:25.311Z,1.80
2022-09-24T03:45:52.579Z,1.77
2022-09-24T03:48:20.533Z,1.65
2022-09-24T03:50:47.536Z,1.58
2022-09-24T03:53:14.943Z,1.55
2022-09-24T03:55:46.766Z,1.90
2022-09-24T03:58:15.018Z,1.98
2022-09-24T04:00:42.462Z,1.75
2022-09-24T04:03:09.752Z,1.75
2022-09-24T04:05:36.873Z,1.67
2022-09-24T04:08:05.189Z,1.58
2022-09-24T04:10:32.586Z,1.90
2022-09-24T04:12:59.306Z,1.60
2022-09-24T04:15:26.086Z,2.22
2022-09-24T04:17:54.124Z,2.13
2022-09-24T04:20:22.928Z,1.88
2022-09-24T04:22:51.094Z,1.92
2022-09-24T04:25:18.381Z,1.65
2022-09-24T04:27:45.725Z,1.75
2022-09-24T04:30:14.437Z,2.13
2022-09-24T04:32:41.790Z,1.80
2022-09-24T04:35:09.996Z,1.80
2022-09-24T04:37:37.518Z,1.45
2022-09-24T04:40:07.243Z,2.00
2022-09-24T04:42:34.076Z,1.77
2022-09-24T04:45:01.114Z,2.13
2022-09-24T04:47:27.859Z,1.98
2022-09-24T04:49:54.668Z,1.83
2022-09-24T04:52:29.845Z,1.98
2022-09-24T04:54:57.928Z,1.90
2022-09-24T04:57:25.304Z,1.80
2022-09-24T04:59:52.275Z,1.90
2022-09-24T05:02:19.254Z,2.05
2022-09-24T05:04:46.209Z,2.65
2022-09-24T05:07:13.611Z,2.05
2022-09-24T05:09:40.346Z,2.10
2022-09-24T05:12:07.239Z,1.63
2022-09-24T05:14:34.159Z,2.25
2022-09-24T05:17:00.931Z,1.98
2022-09-24T05:19:27.680Z,1.92
2022-09-24T05:21:54.432Z,1.80
2022-09-24T05:24:21.181Z,1.73
2022-09-24T05:27:06.263Z,2.13
2022-09-24T05:29:33.173Z,1.80
2022-09-24T05:32:03.691Z,2.05
2022-09-24T05:34:31.128Z,2.50
2022-09-24T05:36:58.248Z,1.77
2022-09-24T05:39:25.023Z,1.90
2022-09-24T05:41:51.785Z,1.67
2022-09-24T05:44:21.675Z,1.63
2022-09-24T05:46:49.409Z,1.75
2022-09-24T05:49:16.644Z,1.85
2022-09-24T05:51:43.477Z,1.75
2022-09-24T05:54:11.443Z,1.95
2022-09-24T05:56:38.816Z,1.98
2022-09-24T05:59:05.656Z,2.25
2022-09-24T06:01:32.714Z,2.00
2022-09-24T06:04:01.614Z,1.90
2022-09-24T06:06:30.384Z,1.83
2022-09-24T06:08:57.216Z,1.80
2022-09-24T06:11:24.006Z,2.08
2022-09-24T06:13:51.365Z,1.58
2022-09-24T06:16:18.645Z,2.22
2022-09-24T06:18:46.278Z,1.70
2022-09-24T06:21:19.526Z,1.83
2022-09-24T06:23:46.463Z,1.63
2022-09-24T06:26:14.401Z,1.60
2022-09-24T06:28:42.019Z,1.67
2022-09-24T06:31:11.885Z,1.45
2022-09-24T06:33:40.390Z,1.70
2022-09-24T06:36:18.094Z,2.00
2022-09-24T06:38:45.642Z,1.48
2022-09-24T06:41:12.632Z,1.60
2022-09-24T06:43:39.748Z,6.70
2022-09-24T06:46:06.962Z,6.38
2022-09-24T06:48:33.833Z,3.60
2022-09-24T06:51:00.751Z,2.90
2022-09-24T06:53:27.936Z,2.13
2022-09-24T06:55:59.529Z,1.50
2022-09-24T06:58:27.297Z,2.03
2022-09-24T07:00:59.003Z,1.50
2022-09-24T07:05:54.837Z,1.40
2022-09-24T07:08:22.153Z,1.60
2022-09-24T07:10:49.456Z,2.00
2022-09-24T07:13:16.893Z,8.85
2022-09-24T07:15:44.582Z,1.85
2022-09-24T07:18:12.587Z,1.60
2022-09-24T07:20:40.134Z,1.67
2022-09-24T07:23:11.174Z,1.77
2022-09-24T07:25:39.055Z,1.55
2022-09-24T07:28:08.564Z,1.33
2022-09-24T07:30:37.144Z,1.48
2022-09-24T07:33:04.624Z,1.40
2022-09-24T07:35:31.629Z,1.70
2022-09-24T07:38:04.459Z,1.30
2022-09-24T07:40:32.871Z,1.48
2022-09-24T07:43:00.176Z,1.33
2022-09-24T07:45:29.466Z,1.73
2022-09-24T07:48:00.878Z,1.90
2022-09-24T07:50:31.323Z,1.70
2022-09-24T07:52:58.353Z,1.33
2022-09-24T07:55:26.022Z,1.48
2022-09-24T07:57:54.852Z,1.83
2022-09-24T08:00:24.625Z,2.05
2022-09-24T08:02:53.977Z,1.58
2022-09-24T08:05:21.500Z,1.75
2022-09-24T08:07:55.955Z,1.42
2022-09-24T08:10:24.151Z,1.70
2022-09-24T08:12:51.202Z,1.50
2022-09-24T08:15:18.825Z,1.52
2022-09-24T08:17:46.174Z,1.52
2022-09-24T08:20:12.991Z,1.63
2022-09-24T08:22:40.251Z,1.83
2022-09-24T08:25:07.850Z,1.63
2022-09-24T08:27:37.000Z,1.58
2022-09-24T08:30:05.817Z,1.42
2022-09-24T08:32:32.642Z,1.60
2022-09-24T08:34:59.716Z,2.40
2022-09-24T08:37:28.769Z,2.30
2022-09-24T08:39:56.001Z,2.45
2022-09-24T08:42:43.960Z,1.98
2022-09-24T08:45:50.252Z,2.15
2022-09-24T08:51:22.836Z,1.70
2022-09-24T08:53:55.373Z,2.08
2022-09-24T08:56:32.276Z,1.67
2022-09-24T08:59:01.728Z,2.38
2022-09-24T09:01:46.012Z,1.73
2022-09-24T09:05:08.421Z,1.60
2022-09-24T09:08:21.542Z,1.83
2022-09-24T09:11:02.993Z,1.90
2022-09-24T09:13:54.782Z,2.00
2022-09-24T09:16:39.963Z,1.88
2022-09-24T09:19:12.215Z,1.80
2022-09-24T09:21:45.092Z,2.00
2022-09-24T09:24:35.793Z,1.80
2022-09-24T09:27:06.083Z,1.75
2022-09-24T09:29:33.142Z,3.55
2022-09-24T09:32:06.805Z,2.60
2022-09-24T09:35:21.873Z,3.65
2022-09-24T09:37:58.625Z,2.30
2022-09-24T09:40:35.614Z,2.08
2022-09-24T09:43:04.981Z,1.98
2022-09-24T09:45:52.872Z,1.92
2022-09-24T09:48:23.358Z,2.08
2022-09-24T09:51:00.486Z,1.80
2022-09-24T09:53:31.569Z,1.88
2022-09-24T09:56:05.000Z,1.55
2022-09-24T09:58:34.323Z,2.00
2022-09-24T10:01:12.761Z,2.40
2022-09-24T10:03:49.581Z,2.40
2022-09-24T10:06:33.759Z,2.47
2022-09-24T10:09:20.490Z,3.80
2022-09-24T10:11:50.179Z,3.15
2022-09-24T10:14:19.293Z,2.78
2022-09-24T10:16:55.195Z,2.80
2022-09-24T10:19:25.878Z,3.75
2022-09-24T10:21:57.687Z,3.72
2022-09-24T10:24:27.036Z,3.22
2022-09-24T10:26:54.378Z,3.15
2022-09-24T10:29:50.827Z,3.33
2022-09-24T10:32:23.026Z,3.50
2022-09-24T10:35:01.417Z,3.22
2022-09-24T10:37:29.850Z,3.33
2022-09-24T10:40:14.123Z,3.05
2022-09-24T10:42:41.044Z,2.95
2022-09-24T10:45:17.144Z,3.53
2022-09-24T10:47:56.017Z,3.28
2022-09-24T10:50:34.860Z,3.33
2022-09-24T10:53:07.834Z,3.40
2022-09-24T10:55:58.141Z,3.15
2022-09-24T10:58:53.267Z,3.47
2022-09-24T11:01:27.100Z,4.00
2022-09-24T11:04:06.525Z,2.90
2022-09-24T11:06:36.377Z,3.08
2022-09-24T11:09:17.373Z,3.38
2022-09-24T11:11:48.032Z,2.77
2022-09-24T11:14:45.108Z,3.10
2022-09-24T11:17:30.190Z,3.50
2022-09-24T11:19:56.912Z,3.67
2022-09-24T11:22:51.896Z,3.22
2022-09-24T11:25:52.828Z,3.80
2022-09-24T11:28:38.055Z,3.60
2022-09-24T11:31:10.781Z,3.38
2022-09-24T11:34:19.270Z,3.45
2022-09-24T11:37:37.902Z,3.78
2022-09-24T11:40:29.901Z,4.28
2022-09-24T11:45:57.149Z,3.42
2022-09-24T11:48:51.793Z,3.15
2022-09-24T11:51:21.182Z,3.40
2022-09-24T11:54:04.466Z,3.38
2022-09-24T11:56:49.385Z,2.95
2022-09-24T11:59:31.369Z,3.55
2022-09-24T12:02:38.710Z,3.15
2022-09-24T12:05:25.820Z,3.20
2022-09-24T12:08:00.282Z,3.30
2022-09-24T12:10:38.691Z,3.25
2022-09-24T12:13:33.148Z,3.15
2022-09-24T12:16:19.705Z,3.03
2022-09-24T12:18:55.370Z,3.03
2022-09-24T12:21:38.311Z,3.30
2022-09-24T12:24:34.155Z,3.70
2022-09-24T12:27:08.810Z,3.80
2022-09-24T12:30:06.255Z,3.67
2022-09-24T12:32:54.278Z,3.60
2022-09-24T12:35:34.049Z,3.38
2022-09-24T12:38:08.795Z,3.38
2022-09-24T12:40:50.844Z,3.55
2022-09-24T12:43:34.615Z,3.80
2022-09-24T12:46:08.838Z,3.17
2022-09-24T12:48:38.703Z,3.47
2022-09-24T12:51:10.274Z,3.30
2022-09-24T12:53:40.705Z,3.58
2022-09-24T12:56:09.794Z,3.28
2022-09-24T12:58:40.548Z,3.30
2022-09-24T13:01:26.072Z,3.23
2022-09-24T13:04:15.981Z,3.45
2022-09-24T13:06:47.926Z,3.38
2022-09-24T13:09:35.584Z,3.03
2022-09-24T13:12:06.667Z,3.15
2022-09-24T13:14:35.198Z,3.72
2022-09-24T13:17:06.465Z,3.03
2022-09-24T13:19:41.352Z,3.40
2022-09-24T13:22:28.315Z,3.97
2022-09-24T13:25:10.658Z,3.28
2022-09-24T13:27:41.531Z,3.50
2022-09-24T13:30:45.188Z,3.55
2022-09-24T13:33:29.759Z,3.60
2022-09-24T13:36:12.366Z,3.15
2022-09-24T13:38:52.863Z,3.45
2022-09-24T13:41:30.876Z,3.20
2022-09-24T13:44:08.098Z,3.33
2022-09-24T13:46:36.737Z,3.17
2022-09-24T13:49:11.647Z,3.42
2022-09-24T13:51:41.533Z,4.13
2022-09-24T13:54:16.852Z,3.60
2022-09-24T13:57:21.698Z,3.53
2022-09-24T13:59:48.447Z,3.45
2022-09-24T14:02:29.798Z,3.25
2022-09-24T14:04:58.895Z,3.28
2022-09-24T14:07:28.617Z,2.90
2022-09-24T14:10:07.889Z,3.20
2022-09-24T14:12:34.790Z,2.80
2022-09-24T14:15:04.710Z,2.78
2022-09-24T14:17:31.444Z,3.30
2022-09-24T14:19:59.107Z,3.22
2022-09-24T14:22:46.578Z,2.60
2022-09-24T14:25:20.316Z,4.00
2022-09-24T14:27:50.814Z,2.92
2022-09-24T14:30:29.672Z,2.85
2022-09-24T14:33:06.962Z,3.10
2022-09-24T14:35:36.368Z,2.97
2022-09-24T14:38:08.815Z,2.80
2022-09-24T14:40:59.684Z,2.78
2022-09-24T14:43:31.376Z,2.60
2022-09-24T14:48:34.956Z,2.17
2022-09-24T14:51:02.544Z,2.40
2022-09-24T14:53:34.156Z,2.28
2022-09-24T14:56:21.601Z,2.30
2022-09-24T14:58:49.070Z,2.20
2022-09-24T15:01:19.777Z,2.17
2022-09-24T15:03:57.479Z,2.00
2022-09-24T15:06:28.843Z,1.80
2022-09-24T15:09:00.660Z,2.30
2022-09-24T15:11:31.516Z,2.30
2022-09-24T15:14:11.704Z,2.30
2022-09-24T15:16:38.495Z,2.58
2022-09-24T15:19:36.279Z,2.00
2022-09-24T15:22:03.043Z,1.90
2022-09-24T15:24:30.095Z,2.03
2022-09-24T15:27:27.131Z,2.50
2022-09-24T15:29:59.478Z,2.40
2022-09-24T15:32:28.204Z,3.45
2022-09-24T15:34:55.991Z,3.20
2022-09-24T15:37:25.575Z,2.70
2022-09-24T15:39:56.474Z,2.85
2022-09-24T15:42:26.359Z,2.70
2022-09-24T15:44:54.846Z,2.55
2022-09-24T15:47:22.105Z,2.90
2022-09-24T15:49:49.998Z,2.58
2022-09-24T15:52:24.643Z,2.20
2022-09-24T15:54:52.613Z,2.55
2022-09-24T15:57:19.515Z,2.88
2022-09-24T15:59:46.398Z,2.10
2022-09-24T16:02:34.449Z,2.28
2022-09-24T16:05:03.870Z,2.97
2022-09-24T16:07:31.016Z,2.95
2022-09-24T16:09:57.878Z,2.97
2022-09-24T16:12:28.011Z,3.20
2022-09-24T16:14:59.016Z,3.10
2022-09-24T16:17:27.251Z,3.42
2022-09-24T16:19:54.388Z,3.33
2022-09-24T16:22:21.699Z,3.70
2022-09-24T16:24:48.812Z,3.55
2022-09-24T16:27:15.679Z,3.65
2022-09-24T16:29:42.456Z,4.03
2022-09-24T16:32:09.333Z,3.42
2022-09-24T16:34:36.182Z,3.50
2022-09-24T16:37:02.940Z,3.88
2022-09-24T16:39:30.313Z,4.07
2022-09-24T16:41:58.017Z,4.35
2022-09-24T16:44:24.814Z,4.75
2022-09-24T16:46:51.603Z,4.75
2022-09-24T16:49:19.438Z,4.90
2022-09-24T16:51:46.186Z,4.80
2022-09-24T16:54:13.741Z,5.63
2022-09-24T16:56:40.678Z,6.22
2022-09-24T16:59:09.835Z,5.75
2022-09-24T17:01:37.218Z,4.47
2022-09-24T17:04:04.204Z,4.95
2022-09-24T17:06:31.411Z,4.88
2022-09-24T17:09:17.066Z,4.85
2022-09-24T17:11:46.874Z,5.28
2022-09-24T17:14:14.751Z,5.60
2022-09-24T17:16:42.545Z,7.22
2022-09-24T17:19:10.748Z,6.93
2022-09-24T17:21:39.257Z,8.60
2022-09-24T17:24:07.105Z,6.93
2022-09-24T17:26:34.577Z,5.32
2022-09-24T17:29:02.026Z,7.75
2022-09-24T17:31:28.858Z,5.30
2022-09-24T17:34:01.176Z,5.50
2022-09-24T17:36:30.137Z,5.70
2022-09-24T17:38:59.276Z,5.05
2022-09-24T17:41:28.881Z,4.82
2022-09-24T17:43:59.697Z,4.72
2022-09-24T17:46:29.154Z,7.35
2022-09-24T17:48:59.282Z,5.05
2022-09-24T17:51:34.479Z,5.55
2022-09-24T17:54:03.690Z,5.47
2022-09-24T17:56:38.547Z,5.47
2022-09-24T17:59:07.623Z,6.18
2022-09-24T18:01:37.250Z,8.65
2022-09-24T18:04:07.179Z,6.90
2022-09-24T18:06:38.255Z,6.32
2022-09-24T18:09:07.276Z,5.50
2022-09-24T18:11:48.749Z,8.45
2022-09-24T18:14:19.825Z,7.80
2022-09-24T18:16:49.140Z,5.73
2022-09-24T18:19:17.531Z,5.35
2022-09-24T18:21:45.168Z,4.57
2022-09-24T18:24:13.185Z,5.53
2022-09-24T18:26:43.637Z,6.85
2022-09-24T18:29:18.042Z,5.88
2022-09-24T18:31:45.997Z,6.15
2022-09-24T18:34:17.225Z,6.32
2022-09-24T18:36:47.191Z,4.57
2022-09-24T18:39:24.625Z,5.43
2022-09-24T18:41:52.180Z,5.30
2022-09-24T18:44:20.047Z,5.80
2022-09-24T18:46:48.983Z,4.57
2022-09-24T18:49:17.440Z,4.10
2022-09-24T18:51:44.942Z,4.93
2022-09-24T18:54:14.011Z,5.50
2022-09-24T18:56:42.846Z,5.70
2022-09-24T18:59:17.241Z,6.00
2022-09-24T19:01:46.012Z,5.75
2022-09-24T19:04:16.305Z,5.43
2022-09-24T19:06:45.382Z,4.80
2022-09-24T19:09:14.121Z,3.80
2022-09-24T19:11:42.208Z,4.35
2022-09-24T19:14:12.061Z,3.65
2022-09-24T19:16:39.842Z,3.78
2022-09-24T19:19:09.131Z,4.10
2022-09-24T19:21:38.729Z,4.18
2022-09-24T19:24:09.805Z,5.03
2022-09-24T19:26:37.859Z,6.18
2022-09-24T19:29:06.447Z,5.20
2022-09-24T19:31:36.495Z,7.15
2022-09-24T19:34:05.144Z,6.38
2022-09-24T19:36:44.206Z,6.50
2022-09-24T19:39:16.299Z,6.97
2022-09-24T19:41:45.967Z,6.65
2022-09-24T19:44:16.556Z,5.93
2022-09-24T19:46:46.058Z,6.40
2022-09-24T19:49:14.102Z,6.70
2022-09-24T19:51:41.798Z,6.68
2022-09-24T19:54:10.237Z,6.40
2022-09-24T19:56:38.092Z,5.70
2022-09-24T19:59:07.852Z,5.68
2022-09-24T20:01:38.296Z,4.72
2022-09-24T20:04:08.069Z,4.88
2022-09-24T20:06:37.378Z,5.30
2022-09-24T20:09:04.903Z,5.75
2022-09-24T20:11:33.247Z,6.18
2022-09-24T20:14:01.256Z,6.32
2022-09-24T20:16:34.285Z,6.95
2022-09-24T20:19:04.244Z,6.75
2022-09-24T20:21:34.739Z,7.32
2022-09-24T20:24:04.311Z,7.38
2022-09-24T20:26:50.775Z,6.10
2022-09-24T20:29:23.345Z,7.43
2022-09-24T20:31:54.546Z,8.35
2022-09-24T20:34:28.740Z,7.47
2022-09-24T20:37:00.743Z,7.20
2022-09-24T20:39:28.787Z,6.75
2022-09-24T20:42:03.389Z,6.30
2022-09-24T20:44:31.782Z,5.70
2022-09-24T20:47:00.910Z,5.15
2022-09-24T20:49:31.535Z,5.07
2022-09-24T20:51:58.389Z,5.10
2022-09-24T20:54:28.592Z,5.07
2022-09-24T20:56:57.794Z,5.13
2022-09-24T20:59:27.333Z,6.30
2022-09-24T21:01:54.827Z,6.10
2022-09-24T21:04:22.705Z,6.40
2022-09-24T21:06:50.488Z,6.10
2022-09-24T21:09:18.008Z,6.20
2022-09-24T21:11:51.701Z,6.38
2022-09-24T21:14:24.343Z,5.97
2022-09-24T21:16:51.050Z,6.10
2022-09-24T21:19:19.676Z,5.43
2022-09-24T21:21:47.225Z,5.40
2022-09-24T21:24:17.196Z,5.88
2022-09-24T21:26:46.677Z,5.57
2022-09-24T21:29:16.884Z,5.68
2022-09-24T21:31:46.490Z,5.63
2022-09-24T21:34:16.186Z,5.57
2022-09-24T21:36:48.463Z,5.00
2022-09-24T21:39:25.203Z,5.68
2022-09-24T21:41:56.398Z,5.85
2022-09-24T21:44:24.400Z,6.60
2022-09-24T21:46:53.469Z,5.90
2022-09-24T21:49:23.042Z,5.95
2022-09-24T21:51:50.692Z,5.63
2022-09-24T21:54:20.997Z,6.28
2022-09-24T21:57:03.515Z,6.53
2022-09-24T22:00:06.865Z,6.00
2022-09-24T22:02:34.138Z,6.97
2022-09-24T22:05:02.383Z,7.15
2022-09-24T22:07:33.743Z,7.50
2022-09-24T22:10:02.502Z,8.00
2022-09-24T22:12:29.860Z,7.07
2022-09-24T22:14:58.912Z,7.45
2022-09-24T22:17:26.248Z,7.30
2022-09-24T22:19:55.115Z,10.82
2022-09-24T22:22:22.682Z,9.68
2022-09-24T22:24:50.946Z,9.10
2022-09-24T22:27:18.357Z,7.93
2022-09-24T22:29:46.450Z,9.30
2022-09-24T22:32:18.643Z,8.65
2022-09-24T22:35:03.832Z,8.05
2022-09-24T22:37:33.103Z,7.93
2022-09-24T22:40:02.385Z,8.15
2022-09-24T22:42:30.223Z,8.52
2022-09-24T22:45:00.164Z,7.28
2022-09-24T22:47:27.521Z,7.00
2022-09-24T22:49:54.778Z,7.45
2022-09-24T22:52:22.700Z,7.53
2022-09-24T22:54:49.950Z,7.30
2022-09-24T22:57:17.118Z,7.38
2022-09-24T22:59:43.855Z,7.75
2022-09-24T23:02:13.136Z,8.45
2022-09-24T23:04:40.855Z,7.93
2022-09-24T23:07:07.633Z,6.93
2022-09-24T23:09:34.383Z,7.32
2022-09-24T23:12:01.346Z,7.53
2022-09-24T23:14:29.308Z,7.05
2022-09-24T23:16:58.673Z,7.53
